Time;durP1;ratioP1;P1;durP2;ratioP2;P2;SDS_P1;SDS_P2;PMS_P1;PMS_P2;Temp;Humidity;BMP_temperature;BMP_pressure;BME280_temperature;BME280_humidity;BME280_pressure;Samples;Min_cycle;Max_cycle;Signal;HPM_P1;HPM_P2
2022/07/05 00:00:37;;;;;;;;;;;20.00;52.30;;;;;;5164722;27;19923;-54
2022/07/05 00:03:03;;;;;;;;;;;19.90;53.30;;;;;;5167627;27;19930;-47
2022/07/05 00:05:28;;;;;;;;;;;20.70;56.30;;;;;;5163503;27;19930;-47
2022/07/05 00:07:54;;;;;;;;;;;21.50;54.80;;;;;;5150900;27;19930;-45
2022/07/05 00:10:20;;;;;;;;;;;21.20;53.60;;;;;;5164122;27;19927;-45
2022/07/05 00:12:46;;;;;;;;;;;20.60;53.10;;;;;;5164052;27;19923;-46
2022/07/05 00:15:11;;;;;;;;;;;20.20;52.70;;;;;;5169604;27;19926;-48
2022/07/05 00:17:37;;;;;;;;;;;20.00;52.00;;;;;;5163892;27;19923;-47
2022/07/05 00:20:03;;;;;;;;;;;19.80;51.50;;;;;;5162722;27;19923;-48
2022/07/05 00:22:29;;;;;;;;;;;20.40;55.90;;;;;;5149663;27;20351;-47
2022/07/05 00:24:55;;;;;;;;;;;21.30;55.30;;;;;;5159524;27;20196;-46
2022/07/05 00:27:20;;;;;;;;;;;21.60;53.90;;;;;;5169146;27;19935;-49
2022/07/05 00:29:46;;;;;;;;;;;20.50;53.60;;;;;;5163729;27;19945;-48
2022/07/05 00:32:12;;;;;;;;;;;19.90;53.40;;;;;;5163828;27;19971;-47
2022/07/05 00:34:38;;;;;;;;;;;19.90;52.20;;;;;;5150568;27;19930;-45
2022/07/05 00:37:03;;;;;;;;;;;19.80;53.20;;;;;;5163737;27;19981;-47
2022/07/05 00:39:29;;;;;;;;;;;20.50;56.80;;;;;;5161988;27;20286;-45
2022/07/05 00:41:55;;;;;;;;;;;21.30;55.60;;;;;;5168596;27;19967;-47
2022/07/05 00:44:28;;;;;;;;;;;21.50;53.80;;;;;;5144639;27;20009;-48
2022/07/05 00:46:53;;;;;;;;;;;20.40;53.80;;;;;;5168607;27;19990;-52
2022/07/05 00:49:19;;;;;;;;;;;20.10;52.70;;;;;;5164237;27;19923;-46
2022/07/05 00:51:45;;;;;;;;;;;19.80;52.40;;;;;;5163914;27;20370;-48
2022/07/05 00:54:11;;;;;;;;;;;19.70;52.70;;;;;;5168997;27;19926;-51
2022/07/05 00:56:36;;;;;;;;;;;20.50;56.30;;;;;;5162167;27;19923;-45
2022/07/05 00:59:02;;;;;;;;;;;21.30;55.60;;;;;;5143318;27;20131;-49
2022/07/05 01:01:28;;;;;;;;;;;21.50;54.00;;;;;;5168348;27;19926;-45
2022/07/05 01:03:54;;;;;;;;;;;20.40;54.00;;;;;;5144193;27;20285;-47
2022/07/05 01:06:19;;;;;;;;;;;20.10;53.00;;;;;;5166065;27;20374;-57
2022/07/05 01:08:45;;;;;;;;;;;19.90;52.20;;;;;;5145229;27;19927;-50
2022/07/05 01:11:11;;;;;;;;;;;20.30;56.10;;;;;;5163245;27;19927;-44
2022/07/05 01:13:37;;;;;;;;;;;21.10;56.20;;;;;;5168618;27;19930;-46
2022/07/05 01:16:03;;;;;;;;;;;21.80;54.00;;;;;;5161313;27;19930;-45
2022/07/05 01:18:29;;;;;;;;;;;20.60;54.00;;;;;;5162244;27;20319;-44
2022/07/05 01:20:55;;;;;;;;;;;20.20;53.30;;;;;;5168106;27;20013;-48
2022/07/05 01:23:20;;;;;;;;;;;19.90;52.70;;;;;;5162750;27;19926;-48
2022/07/05 01:25:46;;;;;;;;;;;19.80;52.10;;;;;;5163563;27;20283;-54
2022/07/05 01:28:12;;;;;;;;;;;20.00;53.70;;;;;;5168151;27;20204;-47
2022/07/05 01:30:38;;;;;;;;;;;20.80;56.00;;;;;;5162607;27;19922;-45
2022/07/05 01:33:04;;;;;;;;;;;21.50;55.10;;;;;;5167141;27;19929;-47
2022/07/05 01:35:30;;;;;;;;;;;21.10;53.90;;;;;;5161245;27;19923;-47
2022/07/05 01:37:56;;;;;;;;;;;20.30;53.90;;;;;;5162351;27;19959;-47
2022/07/05 01:40:22;;;;;;;;;;;20.00;53.00;;;;;;5149190;27;19962;-46
2022/07/05 01:42:47;;;;;;;;;;;19.80;52.20;;;;;;5162767;27;19923;-49
2022/07/05 01:45:38;;;;;;;;;;;20.00;55.70;;;;;;5162536;27;19934;-46
2022/07/05 01:47:59;;;;;;;;;;;20.90;56.50;;;;;;5168002;27;19923;-46
2022/07/05 01:50:25;;;;;;;;;;;21.80;54.60;;;;;;5162489;27;20289;-47
2022/07/05 01:52:50;;;;;;;;;;;20.90;53.80;;;;;;5143384;27;19923;-52
2022/07/05 01:55:16;;;;;;;;;;;20.20;53.70;;;;;;5165854;27;19923;-45
2022/07/05 01:57:42;;;;;;;;;;;19.90;53.00;;;;;;5162127;27;19926;-47
2022/07/05 02:00:08;;;;;;;;;;;19.60;52.40;;;;;;5167633;27;20397;-49
2022/07/05 02:02:33;;;;;;;;;;;20.20;55.60;;;;;;5162347;27;19922;-49
2022/07/05 02:04:59;;;;;;;;;;;21.00;56.30;;;;;;5161855;27;20300;-48
2022/07/05 02:07:25;;;;;;;;;;;21.70;54.20;;;;;;5167572;27;20405;-47
2022/07/05 02:09:51;;;;;;;;;;;20.60;54.20;;;;;;5161257;27;19950;-46
2022/07/05 02:12:16;;;;;;;;;;;19.90;53.60;;;;;;5160794;27;19922;-46
2022/07/05 02:14:42;;;;;;;;;;;19.80;52.60;;;;;;5167317;27;20380;-51
2022/07/05 02:17:08;;;;;;;;;;;19.70;52.00;;;;;;5162113;27;20282;-44
2022/07/05 02:19:35;;;;;;;;;;;20.20;55.70;;;;;;5167369;27;19975;-47
2022/07/05 02:22:01;;;;;;;;;;;21.00;56.40;;;;;;5162113;27;19930;-47
2022/07/05 02:24:26;;;;;;;;;;;21.80;54.60;;;;;;5162339;27;19922;-47
2022/07/05 02:26:52;;;;;;;;;;;20.80;53.80;;;;;;5167539;27;20266;-45
2022/07/05 02:29:18;;;;;;;;;;;20.40;53.10;;;;;;5160178;27;19930;-45
2022/07/05 02:31:44;;;;;;;;;;;20.10;52.50;;;;;;5160888;27;19970;-45
2022/07/05 02:34:10;;;;;;;;;;;19.80;52.20;;;;;;5167066;27;19938;-45
2022/07/05 02:36:35;;;;;;;;;;;20.00;54.80;;;;;;5161742;27;20397;-46
2022/07/05 02:39:01;;;;;;;;;;;20.90;56.40;;;;;;5148647;27;20378;-47
2022/07/05 02:41:27;;;;;;;;;;;21.60;54.90;;;;;;5143394;27;19923;-50
2022/07/05 02:43:53;;;;;;;;;;;21.00;53.90;;;;;;5161891;27;19922;-45
2022/07/05 02:46:18;;;;;;;;;;;20.20;53.60;;;;;;5166525;27;19987;-45
2022/07/05 02:48:44;;;;;;;;;;;19.80;53.10;;;;;;5160008;27;20008;-46
2022/07/05 02:51:10;;;;;;;;;;;19.80;52.10;;;;;;5161129;27;19923;-46
2022/07/05 02:53:36;;;;;;;;;;;20.30;56.90;;;;;;5166766;27;19980;-47
2022/07/05 02:56:02;;;;;;;;;;;21.20;56.20;;;;;;5161479;27;20422;-48
2022/07/05 02:58:28;;;;;;;;;;;21.70;54.10;;;;;;5167228;27;19976;-45
2022/07/05 03:00:53;;;;;;;;;;;20.50;54.10;;;;;;5161752;27;19958;-46
2022/07/05 03:03:19;;;;;;;;;;;20.10;53.10;;;;;;5161374;27;19930;-45
2022/07/05 03:05:45;;;;;;;;;;;19.80;52.70;;;;;;5165359;27;20010;-47
2022/07/05 03:08:11;;;;;;;;;;;19.70;52.90;;;;;;5160492;27;19927;-46
2022/07/05 03:10:36;;;;;;;;;;;20.40;56.80;;;;;;5161196;27;20021;-55
2022/07/05 03:13:02;;;;;;;;;;;21.30;56.00;;;;;;5166952;27;19979;-48
2022/07/05 03:15:28;;;;;;;;;;;21.60;54.20;;;;;;5161357;27;19923;-48
2022/07/05 03:17:54;;;;;;;;;;;20.60;53.80;;;;;;5167859;27;19930;-53
2022/07/05 03:20:19;;;;;;;;;;;20.30;53.00;;;;;;5166691;27;19923;-49
2022/07/05 03:22:45;;;;;;;;;;;19.90;52.20;;;;;;5164641;27;19933;-49
2022/07/05 03:25:11;;;;;;;;;;;19.80;52.00;;;;;;5168528;27;19926;-47
2022/07/05 03:27:37;;;;;;;;;;;20.00;52.80;;;;;;5164276;27;21947;-49
2022/07/05 03:30:03;;;;;;;;;;;20.70;56.40;;;;;;5164617;27;19930;-48
2022/07/05 03:32:29;;;;;;;;;;;21.50;55.20;;;;;;5170311;27;19923;-48
2022/07/05 03:34:55;;;;;;;;;;;21.00;53.90;;;;;;5165002;27;20409;-49
2022/07/05 03:37:20;;;;;;;;;;;20.10;53.80;;;;;;5166722;27;19930;-53
2022/07/05 03:39:46;;;;;;;;;;;19.90;52.90;;;;;;5168792;27;19927;-46
2022/07/05 03:42:12;;;;;;;;;;;19.80;53.60;;;;;;5163406;27;19930;-48
2022/07/05 03:44:38;;;;;;;;;;;20.50;56.90;;;;;;5168987;27;20342;-46
2022/07/05 03:47:04;;;;;;;;;;;21.40;55.40;;;;;;5164332;27;19930;-46
2022/07/05 03:49:29;;;;;;;;;;;21.40;53.80;;;;;;5164641;27;19942;-46
2022/07/05 03:51:55;;;;;;;;;;;20.30;53.90;;;;;;5169791;27;19923;-50
2022/07/05 03:54:21;;;;;;;;;;;20.00;52.90;;;;;;5164334;27;19923;-46
2022/07/05 03:56:47;;;;;;;;;;;19.80;52.50;;;;;;5164240;27;19931;-51
2022/07/05 03:59:12;;;;;;;;;;;20.30;56.30;;;;;;5169802;27;20301;-50
2022/07/05 04:01:38;;;;;;;;;;;21.10;56.10;;;;;;5162432;27;19962;-49
2022/07/05 04:04:04;;;;;;;;;;;21.80;54.00;;;;;;5169232;27;19930;-46
2022/07/05 04:06:30;;;;;;;;;;;20.50;54.20;;;;;;5164019;27;19922;-45
2022/07/05 04:08:55;;;;;;;;;;;20.00;53.20;;;;;;5164165;27;19923;-44
2022/07/05 04:11:21;;;;;;;;;;;19.90;52.10;;;;;;5169699;27;19930;-46
2022/07/05 04:13:47;;;;;;;;;;;19.70;51.90;;;;;;5145801;27;19979;-49
2022/07/05 04:16:13;;;;;;;;;;;20.20;56.10;;;;;;5163934;27;19929;-47
2022/07/05 04:18:38;;;;;;;;;;;20.90;56.40;;;;;;5168372;27;20361;-47
2022/07/05 04:21:04;;;;;;;;;;;21.80;54.10;;;;;;5162777;27;19926;-46
2022/07/05 04:23:30;;;;;;;;;;;20.60;53.90;;;;;;5169040;27;20374;-44
2022/07/05 04:25:56;;;;;;;;;;;20.10;53.50;;;;;;5163831;27;20284;-47
2022/07/05 04:28:22;;;;;;;;;;;19.80;52.20;;;;;;5163394;27;19934;-45
2022/07/05 04:30:47;;;;;;;;;;;19.70;52.50;;;;;;5169342;27;19927;-47
2022/07/05 04:33:13;;;;;;;;;;;20.50;56.30;;;;;;5163750;27;19934;-47
2022/07/05 04:35:39;;;;;;;;;;;21.20;55.80;;;;;;5163663;27;20269;-45
2022/07/05 04:38:05;;;;;;;;;;;21.60;53.70;;;;;;5167281;27;20001;-45
2022/07/05 04:40:30;;;;;;;;;;;20.60;53.60;;;;;;5162895;27;20373;-49
2022/07/05 04:42:56;;;;;;;;;;;20.00;53.00;;;;;;5168798;27;19922;-46
2022/07/05 04:45:22;;;;;;;;;;;19.80;52.10;;;;;;5163458;27;20228;-45
2022/07/05 04:47:48;;;;;;;;;;;19.70;51.90;;;;;;5163601;27;19938;-45
2022/07/05 04:50:14;;;;;;;;;;;20.30;55.90;;;;;;5169083;27;19937;-50
2022/07/05 04:52:39;;;;;;;;;;;21.20;55.50;;;;;;5163587;27;20338;-46
2022/07/05 04:55:05;;;;;;;;;;;21.70;54.00;;;;;;5162641;27;20155;-52
2022/07/05 04:57:36;;;;;;;;;;;20.60;53.90;;;;;;5167381;27;19931;-44
2022/07/05 05:00:01;;;;;;;;;;;20.00;53.30;;;;;;5162821;27;19930;-46
2022/07/05 05:02:27;;;;;;;;;;;19.90;52.10;;;;;;5165843;27;19923;-52
2022/07/05 05:04:53;;;;;;;;;;;19.80;52.70;;;;;;5147553;27;19923;-46
2022/07/05 05:07:19;;;;;;;;;;;20.50;56.20;;;;;;5163477;27;19927;-45
2022/07/05 05:09:45;;;;;;;;;;;21.30;55.30;;;;;;5168808;27;19923;-48
2022/07/05 05:12:10;;;;;;;;;;;21.60;53.40;;;;;;5163249;27;19927;-45
2022/07/05 05:14:36;;;;;;;;;;;20.30;53.50;;;;;;5161249;27;19927;-47
2022/07/05 05:17:02;;;;;;;;;;;20.20;52.60;;;;;;5167501;27;19930;-45
2022/07/05 05:19:28;;;;;;;;;;;19.80;52.10;;;;;;5162749;27;20425;-51
2022/07/05 05:21:53;;;;;;;;;;;19.80;53.70;;;;;;5163982;27;19938;-55
2022/07/05 05:24:19;;;;;;;;;;;20.80;55.80;;;;;;5167796;27;19927;-48
2022/07/05 05:26:45;;;;;;;;;;;21.60;54.10;;;;;;5144342;27;19926;-44
2022/07/05 05:29:11;;;;;;;;;;;21.20;53.20;;;;;;5168182;27;19946;-49
2022/07/05 05:31:37;;;;;;;;;;;20.30;52.80;;;;;;5162122;27;19927;-52
2022/07/05 05:34:02;;;;;;;;;;;20.00;52.60;;;;;;5161252;27;19922;-46
2022/07/05 05:36:28;;;;;;;;;;;19.80;51.60;;;;;;5167747;27;19975;-49
2022/07/05 05:38:54;;;;;;;;;;;19.90;53.70;;;;;;5162232;27;20421;-52
2022/07/05 05:41:20;;;;;;;;;;;20.80;55.10;;;;;;5162096;27;20293;-45
2022/07/05 05:43:45;;;;;;;;;;;21.70;53.50;;;;;;5168321;27;19975;-44
2022/07/05 05:46:11;;;;;;;;;;;21.00;52.70;;;;;;5162851;27;20044;-45
2022/07/05 05:48:37;;;;;;;;;;;20.20;52.80;;;;;;5149524;27;20373;-44
2022/07/05 05:51:04;;;;;;;;;;;19.90;52.30;;;;;;5141258;27;19923;-48
2022/07/05 05:53:30;;;;;;;;;;;19.60;51.80;;;;;;5161602;27;20335;-46
2022/07/05 05:55:56;;;;;;;;;;;20.10;54.60;;;;;;5167671;27;19934;-45
2022/07/05 05:58:23;;;;;;;;;;;21.00;54.40;;;;;;5162562;27;19999;-48
2022/07/05 06:00:51;;;;;;;;;;;21.80;52.20;;;;;;5144092;27;20194;-44
2022/07/05 06:03:22;;;;;;;;;;;20.80;52.40;;;;;;5167919;27;19969;-49
2022/07/05 06:05:48;;;;;;;;;;;20.10;52.50;;;;;;5142330;27;19923;-44
2022/07/05 06:08:14;;;;;;;;;;;20.00;51.50;;;;;;5165551;27;19929;-53
2022/07/05 06:10:40;;;;;;;;;;;19.90;52.20;;;;;;5162478;27;19975;-48
2022/07/05 06:13:06;;;;;;;;;;;20.80;54.20;;;;;;5161545;27;19930;-46
2022/07/05 06:15:32;;;;;;;;;;;21.60;52.60;;;;;;5167121;27;20014;-44
2022/07/05 06:17:58;;;;;;;;;;;21.10;52.00;;;;;;5162063;27;19934;-45
2022/07/05 06:20:24;;;;;;;;;;;20.30;52.30;;;;;;5162005;27;19949;-49
2022/07/05 06:22:50;;;;;;;;;;;19.80;51.80;;;;;;5167687;27;20364;-45
2022/07/05 06:25:16;;;;;;;;;;;19.80;51.10;;;;;;5162218;27;19930;-45
2022/07/05 06:27:42;;;;;;;;;;;20.30;54.10;;;;;;5161561;27;19975;-57
2022/07/05 06:30:08;;;;;;;;;;;21.20;53.50;;;;;;5165967;27;20400;-44
2022/07/05 06:32:34;;;;;;;;;;;21.80;51.50;;;;;;5161608;27;19932;-44
2022/07/05 06:34:59;;;;;;;;;;;20.80;51.80;;;;;;5148465;27;19926;-48
2022/07/05 06:37:25;;;;;;;;;;;20.30;51.50;;;;;;5161744;27;20021;-46
2022/07/05 06:39:51;;;;;;;;;;;19.90;51.30;;;;;;5161949;27;20286;-47
2022/07/05 06:42:17;;;;;;;;;;;19.70;51.10;;;;;;5167269;27;19971;-48
2022/07/05 06:44:43;;;;;;;;;;;20.10;52.90;;;;;;5161414;27;19927;-46
2022/07/05 06:47:09;;;;;;;;;;;21.00;53.20;;;;;;5159832;27;20376;-51
2022/07/05 06:49:35;;;;;;;;;;;21.80;51.50;;;;;;5166633;27;19973;-48
2022/07/05 06:52:01;;;;;;;;;;;20.80;51.70;;;;;;5164192;27;19923;-50
2022/07/05 06:54:26;;;;;;;;;;;20.40;51.50;;;;;;5170785;27;19961;-43
2022/07/05 06:56:55;;;;;;;;;;;20.20;51.10;;;;;;5165280;27;20026;-50
2022/07/05 06:59:21;;;;;;;;;;;19.90;50.80;;;;;;5165478;27;19927;-50
2022/07/05 07:01:47;;;;;;;;;;;20.40;53.80;;;;;;5170536;27;20429;-48
2022/07/05 07:04:13;;;;;;;;;;;21.30;52.70;;;;;;5163764;27;20022;-51
2022/07/05 07:06:39;;;;;;;;;;;21.50;51.10;;;;;;5145370;27;19923;-45
2022/07/05 07:09:21;;;;;;;;;;;20.60;51.70;;;;;;5170114;27;19948;-47
2022/07/05 07:11:48;;;;;;;;;;;20.30;51.30;;;;;;5164807;27;19927;-47
2022/07/05 07:14:14;;;;;;;;;;;19.90;50.80;;;;;;5164863;27;20662;-48
2022/07/05 07:16:40;;;;;;;;;;;19.90;51.80;;;;;;5170309;27;20013;-46
2022/07/05 07:19:06;;;;;;;;;;;20.80;53.30;;;;;;5165062;27;19997;-46
2022/07/05 07:21:31;;;;;;;;;;;21.70;51.50;;;;;;5170111;27;20410;-51
2022/07/05 07:23:57;;;;;;;;;;;21.20;51.20;;;;;;5162941;27;20003;-48
2022/07/05 07:26:23;;;;;;;;;;;20.40;51.60;;;;;;5164309;27;19971;-48
2022/07/05 07:28:49;;;;;;;;;;;20.10;50.90;;;;;;5170030;27;19929;-46
2022/07/05 07:31:14;;;;;;;;;;;20.10;50.30;;;;;;5164528;27;19931;-50
2022/07/05 07:33:41;;;;;;;;;;;19.90;50.20;;;;;;5164813;27;20334;-46
2022/07/05 07:36:07;;;;;;;;;;;20.50;52.80;;;;;;5170216;27;20021;-48
2022/07/05 07:38:33;;;;;;;;;;;21.40;51.90;;;;;;5164450;27;19965;-46
2022/07/05 07:41:00;;;;;;;;;;;21.60;50.60;;;;;;5168591;27;20221;-47
2022/07/05 07:43:26;;;;;;;;;;;20.60;51.60;;;;;;5163621;27;19931;-47
2022/07/05 07:45:52;;;;;;;;;;;20.30;51.00;;;;;;5159944;27;19923;-46
2022/07/05 07:48:18;;;;;;;;;;;20.00;50.80;;;;;;5170010;27;20025;-45
2022/07/05 07:50:44;;;;;;;;;;;19.80;50.50;;;;;;5164469;27;20310;-45
2022/07/05 07:53:10;;;;;;;;;;;20.20;52.60;;;;;;5164786;27;19977;-46
2022/07/05 07:55:35;;;;;;;;;;;21.10;52.60;;;;;;5169850;27;20172;-46
2022/07/05 07:58:02;;;;;;;;;;;21.90;50.90;;;;;;5164190;27;19923;-47
2022/07/05 08:00:28;;;;;;;;;;;21.00;51.20;;;;;;5147801;27;19923;-54
2022/07/05 08:02:54;;;;;;;;;;;20.30;51.30;;;;;;5164391;27;20274;-46
2022/07/05 08:05:19;;;;;;;;;;;20.20;50.90;;;;;;5163778;27;19952;-45
2022/07/05 08:07:45;;;;;;;;;;;19.80;50.70;;;;;;5169588;27;19926;-47
2022/07/05 08:10:11;;;;;;;;;;;20.30;53.00;;;;;;5164215;27;20461;-46
2022/07/05 08:12:37;;;;;;;;;;;21.30;52.40;;;;;;5145474;27;19926;-45
2022/07/05 08:15:03;;;;;;;;;;;21.80;50.40;;;;;;5169294;27;19922;-45
2022/07/05 08:17:29;;;;;;;;;;;20.80;51.10;;;;;;5162701;27;19929;-49
2022/07/05 08:22:38;;;;;;;;;;;20.10;50.90;;;;;;5168784;27;20308;-46
2022/07/05 08:25:04;;;;;;;;;;;20.00;50.10;;;;;;5163538;27;19923;-46
2022/07/05 08:27:30;;;;;;;;;;;19.90;49.90;;;;;;5150788;27;20412;-47
2022/07/05 08:29:56;;;;;;;;;;;19.80;49.80;;;;;;5164401;27;19961;-47
2022/07/05 08:32:22;;;;;;;;;;;19.60;51.10;;;;;;5163817;27;20281;-45
2022/07/05 08:34:47;;;;;;;;;;;20.60;52.60;;;;;;5168897;27;19956;-51
2022/07/05 08:37:13;;;;;;;;;;;21.30;51.90;;;;;;5161832;27;19926;-46
2022/07/05 08:39:39;;;;;;;;;;;21.80;50.50;;;;;;5162949;27;19926;-45
2022/07/05 08:42:07;;;;;;;;;;;20.80;51.20;;;;;;5169018;27;19923;-46
2022/07/05 08:44:35;;;;;;;;;;;20.20;51.30;;;;;;5144894;27;19927;-46
2022/07/05 08:47:02;;;;;;;;;;;20.00;51.10;;;;;;5147054;27;19927;-57
2022/07/05 08:49:27;;;;;;;;;;;19.90;52.10;;;;;;5149306;27;19929;-47
2022/07/05 08:51:53;;;;;;;;;;;20.80;53.20;;;;;;5163369;27;19931;-48
2022/07/05 08:54:19;;;;;;;;;;;21.80;51.40;;;;;;5167605;27;20059;-50
2022/07/05 08:56:45;;;;;;;;;;;21.00;51.30;;;;;;5162137;27;19979;-48
2022/07/05 08:59:11;;;;;;;;;;;20.30;52.00;;;;;;5162957;27;19922;-48
2022/07/05 09:01:37;;;;;;;;;;;20.00;51.40;;;;;;5168599;27;20366;-49
2022/07/05 09:04:04;;;;;;;;;;;19.90;50.90;;;;;;5163165;27;20385;-45
2022/07/05 09:06:30;;;;;;;;;;;19.90;50.60;;;;;;5163261;27;19937;-49
2022/07/05 09:08:56;;;;;;;;;;;20.80;52.80;;;;;;5150095;27;19923;-46
2022/07/05 09:11:23;;;;;;;;;;;21.60;51.70;;;;;;5163120;27;20006;-47
2022/07/05 09:13:49;;;;;;;;;;;21.30;51.10;;;;;;5166178;27;19922;-46
2022/07/05 09:16:15;;;;;;;;;;;20.50;51.60;;;;;;5159600;27;19987;-46
2022/07/05 09:18:42;;;;;;;;;;;20.10;51.20;;;;;;5162876;27;19931;-44
2022/07/05 09:21:23;;;;;;;;;;;20.00;50.60;;;;;;5168136;27;20319;-47
2022/07/05 09:23:54;;;;;;;;;;;19.90;50.20;;;;;;5162874;27;19922;-49
2022/07/05 09:26:20;;;;;;;;;;;20.40;53.00;;;;;;5144608;27;19971;-49
2022/07/05 09:28:56;;;;;;;;;;;21.40;51.80;;;;;;5168106;27;19922;-47
2022/07/05 09:31:28;;;;;;;;;;;21.60;50.70;;;;;;5161367;27;20305;-44
2022/07/05 09:33:54;;;;;;;;;;;20.70;51.30;;;;;;5161773;27;20441;-46
2022/07/05 09:36:19;;;;;;;;;;;20.30;51.00;;;;;;5167598;27;19975;-47
2022/07/05 09:38:51;;;;;;;;;;;20.10;50.70;;;;;;5162654;27;20377;-46
2022/07/05 09:41:17;;;;;;;;;;;20.10;49.80;;;;;;5162545;27;19933;-50
2022/07/05 09:43:43;;;;;;;;;;;20.30;52.60;;;;;;5168147;27;20060;-45
2022/07/05 09:46:09;;;;;;;;;;;21.20;52.30;;;;;;5162368;27;19927;-49
2022/07/05 09:48:35;;;;;;;;;;;21.90;50.30;;;;;;5167800;27;19923;-45
2022/07/05 09:51:08;;;;;;;;;;;20.90;51.20;;;;;;5160761;27;19923;-47
2022/07/05 09:53:46;;;;;;;;;;;20.40;50.90;;;;;;5143639;27;20324;-46
2022/07/05 09:56:12;;;;;;;;;;;20.30;50.40;;;;;;5167290;27;20366;-52
2022/07/05 09:58:38;;;;;;;;;;;20.10;50.10;;;;;;5162204;27;19923;-46
2022/07/05 10:01:22;;;;;;;;;;;20.00;49.60;;;;;;5162010;27;20330;-46
2022/07/05 10:03:52;;;;;;;;;;;20.00;49.30;;;;;;5167876;27;20017;-46
2022/07/05 10:06:19;;;;;;;;;;;19.80;50.70;;;;;;5143865;27;19923;-44
2022/07/05 10:08:44;;;;;;;;;;;20.80;52.30;;;;;;5160395;27;20342;-45
2022/07/05 10:11:10;;;;;;;;;;;21.50;51.00;;;;;;5166896;27;19955;-48
2022/07/05 10:13:36;;;;;;;;;;;21.50;50.00;;;;;;5143059;27;19923;-46
2022/07/05 10:16:02;;;;;;;;;;;20.60;50.70;;;;;;5145511;27;19927;-55
2022/07/05 10:18:31;;;;;;;;;;;20.30;50.50;;;;;;5165771;27;19927;-46
2022/07/05 10:20:57;;;;;;;;;;;19.90;50.40;;;;;;5162155;27;19962;-48
2022/07/05 10:23:23;;;;;;;;;;;20.20;52.00;;;;;;5167496;27;20298;-46
2022/07/05 10:25:49;;;;;;;;;;;21.20;51.30;;;;;;5160740;27;20294;-47
2022/07/05 10:28:15;;;;;;;;;;;21.80;49.50;;;;;;5160568;27;20342;-45
2022/07/05 10:30:44;;;;;;;;;;;20.80;50.40;;;;;;5167188;27;19927;-45
2022/07/05 10:33:10;;;;;;;;;;;20.60;49.80;;;;;;5161687;27;19922;-44
2022/07/05 10:35:36;;;;;;;;;;;20.20;50.10;;;;;;5161760;27;20158;-43
2022/07/05 10:38:05;;;;;;;;;;;20.00;49.50;;;;;;5166403;27;21165;-47
2022/07/05 10:40:31;;;;;;;;;;;19.80;49.80;;;;;;5161870;27;19929;-44
2022/07/05 10:42:58;;;;;;;;;;;20.60;51.40;;;;;;5167214;27;19929;-46
2022/07/05 10:45:24;;;;;;;;;;;21.50;50.20;;;;;;5160019;27;20387;-44
2022/07/05 10:48:09;;;;;;;;;;;21.60;49.10;;;;;;5160785;27;19922;-46
2022/07/05 10:50:44;;;;;;;;;;;20.80;49.90;;;;;;5166929;27;20044;-45
2022/07/05 10:53:10;;;;;;;;;;;20.30;49.60;;;;;;5162035;27;19923;-46
2022/07/05 10:55:54;;;;;;;;;;;20.30;49.00;;;;;;5161404;27;19923;-46
2022/07/05 10:58:21;;;;;;;;;;;19.90;49.80;;;;;;5167202;27;20305;-48
2022/07/05 11:00:48;;;;;;;;;;;20.90;51.30;;;;;;5161242;27;19942;-44
2022/07/05 11:03:34;;;;;;;;;;;21.80;49.20;;;;;;5160242;27;19971;-47
2022/07/05 11:06:00;;;;;;;;;;;21.20;49.20;;;;;;5165713;27;20366;-46
2022/07/05 11:08:26;;;;;;;;;;;20.50;49.90;;;;;;5140185;27;19970;-44
2022/07/05 11:11:27;;;;;;;;;;;20.10;50.00;;;;;;5161061;27;19934;-45
2022/07/05 11:13:58;;;;;;;;;;;19.90;49.80;;;;;;5061450;28;19973;-46
2022/07/05 11:16:30;;;;;;;;;;;20.00;49.20;;;;;;5143192;27;19923;-48
2022/07/05 11:19:06;;;;;;;;;;;20.00;48.70;;;;;;5160971;27;19952;-47
2022/07/05 11:21:32;;;;;;;;;;;20.00;48.40;;;;;;5165234;27;19926;-46
2022/07/05 11:24:16;;;;;;;;;;;20.30;51.70;;;;;;5160137;27;20534;-52
2022/07/05 11:26:42;;;;;;;;;;;21.30;50.10;;;;;;5160994;27;19950;-47
2022/07/05 11:29:10;;;;;;;;;;;21.80;48.60;;;;;;5166418;27;19930;-51
2022/07/05 11:31:42;;;;;;;;;;;20.80;49.70;;;;;;5157809;27;19995;-46
2022/07/05 11:34:13;;;;;;;;;;;20.40;49.70;;;;;;5161252;27;19930;-51
2022/07/05 11:36:39;;;;;;;;;;;20.20;49.40;;;;;;5166384;27;19931;-46
2022/07/05 11:39:20;;;;;;;;;;;20.20;48.90;;;;;;5163055;27;19923;-45
2022/07/05 11:41:46;;;;;;;;;;;20.10;48.80;;;;;;5163207;27;20355;-44
2022/07/05 11:44:12;;;;;;;;;;;20.00;48.80;;;;;;5169456;27;19930;-46
2022/07/05 11:46:38;;;;;;;;;;;20.00;48.70;;;;;;5164351;27;19926;-46
2022/07/05 11:49:04;;;;;;;;;;;20.40;51.40;;;;;;5144458;27;20298;-46
2022/07/05 11:51:30;;;;;;;;;;;21.30;50.20;;;;;;5169892;27;19953;-47
2022/07/05 11:53:55;;;;;;;;;;;22.00;48.70;;;;;;5164556;27;19935;-44
2022/07/05 11:56:21;;;;;;;;;;;21.10;49.50;;;;;;5169645;27;19938;-46
2022/07/05 11:58:47;;;;;;;;;;;20.40;50.30;;;;;;5162738;27;20398;-45
2022/07/05 12:01:13;;;;;;;;;;;20.30;49.40;;;;;;5163264;27;19987;-45
2022/07/05 12:03:42;;;;;;;;;;;19.90;49.90;;;;;;5169585;27;20403;-48
2022/07/05 12:06:14;;;;;;;;;;;19.80;49.80;;;;;;5164171;27;20037;-45
2022/07/05 12:08:39;;;;;;;;;;;20.80;51.00;;;;;;5164249;27;20067;-46
2022/07/05 12:13:51;;;;;;;;;;;21.40;49.20;;;;;;5164169;27;19945;-44
2022/07/05 12:16:17;;;;;;;;;;;20.80;49.40;;;;;;5163141;27;20530;-47
2022/07/05 12:19:04;;;;;;;;;;;20.30;49.70;;;;;;5149492;27;19931;-46
2022/07/05 12:21:29;;;;;;;;;;;20.10;49.40;;;;;;5163818;27;19929;-49
2022/07/05 12:23:55;;;;;;;;;;;20.00;49.30;;;;;;5163654;27;20009;-48
2022/07/05 12:26:24;;;;;;;;;;;20.70;51.40;;;;;;5169361;27;20480;-45
2022/07/05 12:28:50;;;;;;;;;;;21.80;49.50;;;;;;5164031;27;19966;-45
2022/07/05 12:31:16;;;;;;;;;;;21.30;49.40;;;;;;5150165;27;20419;-45
2022/07/05 12:33:42;;;;;;;;;;;20.60;50.00;;;;;;5163547;27;20404;-45
2022/07/05 12:36:12;;;;;;;;;;;20.50;49.40;;;;;;5141763;27;19927;-46
2022/07/05 12:38:38;;;;;;;;;;;20.30;49.40;;;;;;5168546;27;19927;-47
2022/07/05 12:41:03;;;;;;;;;;;20.00;49.40;;;;;;5163283;27;19930;-45
2022/07/05 12:43:29;;;;;;;;;;;20.00;49.00;;;;;;5163669;27;20213;-45
2022/07/05 12:45:59;;;;;;;;;;;19.90;48.80;;;;;;5168951;27;19978;-49
2022/07/05 12:48:32;;;;;;;;;;;19.90;49.10;;;;;;5163361;27;19926;-48
2022/07/05 12:50:58;;;;;;;;;;;20.70;51.30;;;;;;5163330;27;20308;-52
2022/07/05 12:58:55;;;;;;;;;;;20.80;49.90;;;;;;5159760;27;20634;-44
2022/07/05 13:01:23;;;;;;;;;;;20.30;50.10;;;;;;5168645;27;20457;-45
2022/07/05 13:03:55;;;;;;;;;;;20.20;49.50;;;;;;5163350;27;20441;-44
2022/07/05 13:06:21;;;;;;;;;;;19.80;49.90;;;;;;5165855;27;20336;-55
2022/07/05 13:08:56;;;;;;;;;;;20.20;51.00;;;;;;5166797;27;20025;-47
2022/07/05 13:11:31;;;;;;;;;;;21.30;50.70;;;;;;5162111;27;19962;-48
2022/07/05 13:13:56;;;;;;;;;;;21.90;49.10;;;;;;5167393;27;19926;-48
2022/07/05 13:16:22;;;;;;;;;;;20.90;50.00;;;;;;5162473;27;20311;-44
2022/07/05 13:18:48;;;;;;;;;;;20.50;50.00;;;;;;5162529;27;20079;-46
2022/07/05 13:21:14;;;;;;;;;;;20.40;49.40;;;;;;5148286;27;20363;-44
2022/07/05 13:23:39;;;;;;;;;;;20.30;49.20;;;;;;5162851;27;20313;-44
2022/07/05 13:26:06;;;;;;;;;;;19.90;49.60;;;;;;5162935;27;19995;-49
2022/07/05 13:28:32;;;;;;;;;;;20.10;51.50;;;;;;5168406;27;20345;-46
2022/07/05 13:30:58;;;;;;;;;;;21.30;50.60;;;;;;5142496;27;19927;-48
2022/07/05 13:33:23;;;;;;;;;;;21.80;49.00;;;;;;5165772;27;19923;-54
2022/07/05 13:35:49;;;;;;;;;;;21.00;50.00;;;;;;5164782;27;20468;-44
2022/07/05 13:38:15;;;;;;;;;;;20.50;50.20;;;;;;5162706;27;19923;-46
2022/07/05 13:40:41;;;;;;;;;;;20.30;49.80;;;;;;5168200;27;19926;-45
2022/07/05 13:43:07;;;;;;;;;;;20.10;49.50;;;;;;5162749;27;19975;-45
2022/07/05 13:45:32;;;;;;;;;;;20.20;51.50;;;;;;5162771;27;19923;-46
2022/07/05 13:47:58;;;;;;;;;;;21.30;50.80;;;;;;5167334;27;20006;-45
2022/07/05 13:50:33;;;;;;;;;;;22.00;48.80;;;;;;5161361;27;19974;-44
2022/07/05 13:52:59;;;;;;;;;;;21.00;49.90;;;;;;5162210;27;19945;-47
2022/07/05 13:55:25;;;;;;;;;;;20.30;50.30;;;;;;5167655;27;20013;-44
2022/07/05 13:57:50;;;;;;;;;;;20.20;50.00;;;;;;5162538;27;19970;-47
2022/07/05 14:00:16;;;;;;;;;;;20.20;49.50;;;;;;5167221;27;20305;-49
2022/07/05 14:02:42;;;;;;;;;;;20.20;48.80;;;;;;5143871;27;19932;-48
2022/07/05 14:05:08;;;;;;;;;;;20.20;48.60;;;;;;5143499;27;19942;-44
2022/07/05 14:07:35;;;;;;;;;;;20.00;49.00;;;;;;5165832;27;20152;-44
2022/07/05 14:10:01;;;;;;;;;;;20.00;48.80;;;;;;5142965;27;20014;-47
2022/07/05 14:12:27;;;;;;;;;;;20.60;51.20;;;;;;5161936;27;19923;-47
2022/07/05 14:14:53;;;;;;;;;;;21.50;50.30;;;;;;5167544;27;19930;-45
2022/07/05 14:17:18;;;;;;;;;;;21.90;48.90;;;;;;5161829;27;19979;-47
2022/07/05 14:19:44;;;;;;;;;;;20.90;50.00;;;;;;5167657;27;19927;-47
2022/07/05 14:22:10;;;;;;;;;;;20.40;50.20;;;;;;5143142;27;19922;-46
2022/07/05 14:24:35;;;;;;;;;;;20.20;50.20;;;;;;5161251;27;19927;-50